Tower, Minnesota
Current Conditions -  °F | °C
As of 11:14 AM on Sunday 23 Nov 2014 (Local Time) from KCQM Reporting Station
Haze Haze  
Wind Chill: 32°   Ceiling: 500
Heat Index: 36°   Visibility: 4mi
Dew Point: 36°   Wind: 5mph
Humidity: 100%   Direction: 230°SW
Pressure: 29.41"   Gusts: NA
Location:  47.81°N, 92.27°W
Report Text: KCQM 231714Z AUTO 23004KT 4SM BR OVC005 02/02 A2941 RMK AO2
Loading
Personal Weather Stations






























Interactive Weather Map New forecast layout! Learn more

10-Day Weather Forecast

Advertisements
Track Severe Weather on mobile